Time;durP1;ratioP1;P1;durP2;ratioP2;P2;SDS_P1;SDS_P2;PMS_P1;PMS_P2;Temp;Humidity;BMP_temperature;BMP_pressure;BME280_temperature;BME280_humidity;BME280_pressure;Samples;Min_cycle;Max_cycle;Signal;HPM_P1;HPM_P2
2022/11/29 00:01:26;;;;;;;28.10;18.00;;;;;;;0.87;82.22;101343.72;104557;1319;37073;-70
2022/11/29 00:04:03;;;;;;;39.40;20.90;;;;;;;0.90;82.20;101337.94;104549;1322;37120;-68
2022/11/29 00:06:40;;;;;;;32.90;18.50;;;;;;;0.93;82.16;101342.46;104601;1316;37228;-70
2022/11/29 00:09:14;;;;;;;33.00;20.80;;;;;;;0.93;82.15;101337.83;104547;1321;37192;-69
2022/11/29 00:14:45;;;;;;;43.30;19.50;;;;;;;0.89;82.10;101346.17;104528;1308;37196;-70
2022/11/29 00:17:23;;;;;;;34.10;18.70;;;;;;;0.90;82.09;101346.54;104530;1319;37167;-71
2022/11/29 00:19:57;;;;;;;30.20;18.00;;;;;;;0.93;82.13;101348.63;104526;1316;36078;-70
2022/11/29 00:22:33;;;;;;;28.00;17.80;;;;;;;0.93;82.05;101348.13;104423;1320;174723;-70
2022/11/29 00:25:17;;;;;;;27.70;17.40;;;;;;;0.94;81.92;101352.96;104522;1321;37142;-71
2022/11/29 00:27:52;;;;;;;39.20;21.00;;;;;;;0.94;82.04;101350.56;104367;1322;37052;-67
2022/11/29 00:30:29;;;;;;;29.70;18.60;;;;;;;0.94;81.94;101353.48;104385;1322;37594;-69
2022/11/29 00:33:06;;;;;;;32.80;18.40;;;;;;;0.92;81.79;101349.30;104759;1316;36137;-71
2022/11/29 00:35:42;;;;;;;30.40;17.00;;;;;;;0.92;82.04;101348.62;104770;1310;37003;-68
2022/11/29 00:38:17;;;;;;;24.40;15.60;;;;;;;0.94;81.90;101341.12;104808;1313;37037;-69
2022/11/29 00:40:56;;;;;;;34.90;18.40;;;;;;;0.92;81.59;101341.41;104796;1317;37004;-69
2022/11/29 00:43:33;;;;;;;33.00;18.30;;;;;;;0.93;81.83;101339.86;104814;1310;37125;-70
2022/11/29 00:46:08;;;;;;;32.70;18.50;;;;;;;0.94;81.86;101339.39;104801;1310;37034;-68
2022/11/29 00:48:44;;;;;;;31.10;16.10;;;;;;;0.94;81.73;101338.52;104772;1318;36262;-70
2022/11/29 00:51:18;;;;;;;34.00;17.60;;;;;;;0.89;81.63;101341.72;104801;1311;37683;-69
2022/11/29 00:53:52;;;;;;;30.60;16.70;;;;;;;0.88;81.79;101336.17;104758;1316;38235;-70
2022/11/29 00:56:26;;;;;;;29.20;16.70;;;;;;;0.90;81.75;101331.94;104805;1310;37071;-69
2022/11/29 00:59:02;;;;;;;29.70;17.50;;;;;;;0.92;81.66;101328.52;104730;1317;38471;-68
2022/11/29 01:01:38;;;;;;;29.10;17.50;;;;;;;0.93;81.75;101328.20;104761;1310;37043;-69
2022/11/29 01:04:15;;;;;;;28.20;16.80;;;;;;;0.92;81.58;101331.09;104128;1310;916349;-70
2022/11/29 01:06:53;;;;;;;32.60;18.10;;;;;;;0.89;81.67;101328.82;104794;1310;37082;-69
2022/11/29 01:09:28;;;;;;;31.90;17.30;;;;;;;0.86;81.45;101330.66;104761;1311;37060;-67
2022/11/29 01:12:04;;;;;;;29.60;17.70;;;;;;;0.87;81.93;101325.52;104775;1317;37526;-69
2022/11/29 01:14:37;;;;;;;29.00;17.00;;;;;;;0.92;81.79;101329.38;104781;1318;38770;-69
2022/11/29 01:17:12;;;;;;;31.70;16.10;;;;;;;0.92;81.62;101323.20;104790;1310;37817;-69
2022/11/29 01:19:48;;;;;;;33.40;19.20;;;;;;;0.88;81.67;101321.42;104770;1311;37602;-67
2022/11/29 01:22:23;;;;;;;40.10;19.40;;;;;;;0.87;81.80;101317.45;104775;1310;37080;-71
2022/11/29 01:24:57;;;;;;;32.20;17.60;;;;;;;0.87;81.81;101312.80;104783;1317;36987;-69
2022/11/29 01:27:32;;;;;;;32.50;18.90;;;;;;;0.89;81.91;101313.19;104770;1318;37052;-68
2022/11/29 01:30:09;;;;;;;29.50;17.90;;;;;;;0.91;81.92;101311.16;104782;1311;37087;-69
2022/11/29 01:32:46;;;;;;;31.20;17.40;;;;;;;0.93;81.98;101308.96;104812;1310;37088;-69
2022/11/29 01:35:20;;;;;;;28.80;17.30;;;;;;;0.96;81.86;101307.80;104792;1310;37134;-70
2022/11/29 01:37:57;;;;;;;51.00;24.20;;;;;;;0.94;81.86;101302.44;104774;1310;37374;-70
2022/11/29 01:40:34;;;;;;;34.10;18.70;;;;;;;0.92;82.00;101301.02;104771;1310;38217;-71
2022/11/29 01:43:14;;;;;;;33.60;19.80;;;;;;;0.89;82.06;101302.89;104807;1311;37007;-70
2022/11/29 01:45:53;;;;;;;26.20;16.30;;;;;;;0.89;82.08;101301.00;104742;1310;37483;-68
2022/11/29 01:48:30;;;;;;;35.60;19.10;;;;;;;0.90;81.89;101299.80;104749;1317;38144;-69
2022/11/29 01:51:05;;;;;;;33.70;18.20;;;;;;;0.93;81.95;101298.83;104774;1310;38392;-71
2022/11/29 01:53:41;;;;;;;33.50;18.80;;;;;;;0.96;82.09;101296.30;104753;1318;36168;-70
2022/11/29 01:56:16;;;;;;;34.20;18.20;;;;;;;0.95;81.93;101293.70;104768;1316;37302;-69
2022/11/29 01:58:51;;;;;;;35.00;19.90;;;;;;;0.92;82.01;101291.77;104756;1311;37065;-66
2022/11/29 02:01:25;;;;;;;34.40;18.20;;;;;;;0.91;81.84;101296.39;104774;1317;37215;-69
2022/11/29 02:03:59;;;;;;;34.80;19.20;;;;;;;0.87;81.98;101293.74;104771;1310;37037;-68
2022/11/29 02:06:37;;;;;;;41.10;20.00;;;;;;;0.86;82.15;101294.94;104788;1310;37038;-70
2022/11/29 02:09:21;;;;;;;33.90;18.40;;;;;;;0.88;82.04;101297.20;104774;1310;37140;-68
2022/11/29 02:12:09;;;;;;;31.80;18.70;;;;;;;0.90;82.11;101294.14;104662;1311;37400;-69
2022/11/29 02:15:12;;;;;;;26.20;16.50;;;;;;;0.91;82.33;101296.73;104730;1316;37110;-68
2022/11/29 02:18:02;;;;;;;35.30;20.30;;;;;;;0.90;82.17;101297.06;104665;1319;37326;-68
2022/11/29 02:21:24;;;;;;;32.30;18.50;;;;;;;0.89;82.36;101300.66;104663;1319;36765;-70
2022/11/29 02:24:25;;;;;;;32.70;17.50;;;;;;;0.91;82.16;101302.23;104700;1313;36846;-70
2022/11/29 02:27:53;;;;;;;34.70;18.80;;;;;;;0.94;82.17;101301.75;104640;1319;37120;-70
2022/11/29 02:30:45;;;;;;;33.90;19.10;;;;;;;0.96;82.22;101302.48;104685;1313;37056;-68
2022/11/29 02:33:56;;;;;;;35.10;18.90;;;;;;;0.94;82.13;101299.88;104576;1319;37192;-70
2022/11/29 02:36:49;;;;;;;31.70;16.40;;;;;;;0.91;82.24;101297.42;104644;1312;38129;-71
2022/11/29 02:39:45;;;;;;;33.20;17.80;;;;;;;0.90;82.32;101299.64;104648;1313;38439;-69
2022/11/29 02:42:48;;;;;;;32.40;18.70;;;;;;;0.87;82.16;101304.39;104649;1318;37122;-70
2022/11/29 02:45:47;;;;;;;31.60;17.60;;;;;;;0.87;82.53;101309.19;104584;1313;38330;-70
2022/11/29 02:48:32;;;;;;;;;;;;;;;0.89;82.51;101308.55;104659;1312;37228;-67
2022/11/29 02:51:17;;;;;;;33.00;20.10;;;;;;;0.90;82.43;101309.95;104644;1316;38386;-68
2022/11/29 02:54:01;;;;;;;36.30;20.20;;;;;;;0.93;82.52;101305.36;104637;1318;37121;-69
2022/11/29 02:56:40;;;;;;;35.40;19.40;;;;;;;0.96;82.57;101312.10;104653;1312;37359;-70
2022/11/29 02:59:21;;;;;;;33.40;19.40;;;;;;;0.94;82.35;101308.98;104647;1312;37087;-69
2022/11/29 03:01:56;;;;;;;;;;;;;;;0.92;82.42;101312.89;104688;1313;37158;-69
2022/11/29 03:04:34;;;;;;;32.90;18.20;;;;;;;0.92;82.44;101312.36;104662;1313;37117;-69
2022/11/29 03:07:13;;;;;;;29.10;16.50;;;;;;;0.93;82.37;101314.80;104667;1319;37589;-70
2022/11/29 03:09:58;;;;;;;27.90;16.20;;;;;;;0.94;82.22;101317.23;104674;1312;37209;-69
2022/11/29 03:12:37;;;;;;;37.70;19.70;;;;;;;0.98;82.43;101319.34;104640;1312;37137;-68
2022/11/29 03:15:21;;;;;;;32.80;18.00;;;;;;;0.99;82.43;101314.22;104633;1313;38532;-69
2022/11/29 03:18:15;;;;;;;25.40;16.40;;;;;;;0.98;82.31;101315.40;104619;1320;36716;-70
2022/11/29 03:21:03;;;;;;;26.90;16.70;;;;;;;0.95;82.26;101315.01;104620;1313;36135;-68
2022/11/29 03:23:42;;;;;;;29.70;15.50;;;;;;;0.93;82.27;101321.30;104646;1319;36422;-68
2022/11/29 03:26:21;;;;;;;29.20;18.00;;;;;;;0.91;82.16;101319.40;104633;1313;37261;-70
2022/11/29 03:29:07;;;;;;;26.60;17.00;;;;;;;0.95;82.44;101318.95;104634;1313;37140;-70
2022/11/29 03:31:50;;;;;;;31.50;18.80;;;;;;;0.99;82.48;101319.72;104631;1318;37352;-70
2022/11/29 03:34:31;;;;;;;30.90;17.40;;;;;;;1.00;82.41;101319.90;104710;1313;36036;-71
2022/11/29 03:37:09;;;;;;;31.90;18.90;;;;;;;0.99;82.32;101319.20;104713;1313;37190;-68
2022/11/29 03:39:49;;;;;;;35.10;19.00;;;;;;;0.96;82.15;101321.02;104706;1314;36233;-68
2022/11/29 03:42:28;;;;;;;27.80;16.50;;;;;;;0.95;82.29;101320.16;104699;1315;36174;-68
2022/11/29 03:45:08;;;;;;;30.70;16.30;;;;;;;0.98;82.22;101321.40;104685;1319;37233;-70
2022/11/29 03:47:51;;;;;;;31.60;17.90;;;;;;;1.02;82.25;101320.95;104730;1319;38742;-70
2022/11/29 03:50:32;;;;;;;31.50;17.50;;;;;;;1.04;82.28;101320.64;104672;1316;37385;-70
2022/11/29 03:53:14;;;;;;;29.70;17.00;;;;;;;1.06;82.13;101324.80;104598;1313;37705;-68
2022/11/29 03:55:58;;;;;;;31.00;17.20;;;;;;;1.05;82.26;101324.80;104697;1313;36984;-69
2022/11/29 03:58:44;;;;;;;28.40;17.10;;;;;;;1.04;82.30;101329.08;104662;1317;36391;-71
2022/11/29 04:01:51;;;;;;;32.20;17.50;;;;;;;1.01;82.11;101329.54;104695;1316;37348;-70
2022/11/29 04:05:03;;;;;;;25.10;15.60;;;;;;;1.00;82.22;101331.92;104576;1319;39415;-68
2022/11/29 04:08:00;;;;;;;27.20;15.40;;;;;;;1.00;82.02;101335.70;104443;1318;37164;-69
2022/11/29 04:10:55;;;;;;;29.30;16.10;;;;;;;0.98;82.12;101336.00;104696;1317;37331;-67
2022/11/29 04:14:27;;;;;;;27.00;16.20;;;;;;;0.97;82.20;101334.45;104692;1313;37017;-69
2022/11/29 04:17:44;;;;;;;29.80;18.90;;;;;;;0.95;82.26;101340.42;104673;1319;36098;-71
2022/11/29 04:20:52;;;;;;;33.10;16.60;;;;;;;0.93;82.20;101344.34;104686;1313;36412;-71
2022/11/29 04:24:21;;;;;;;29.30;16.60;;;;;;;0.92;82.25;101346.38;104689;1316;37943;-68
2022/11/29 04:27:32;;;;;;;27.80;16.70;;;;;;;0.93;82.16;101347.09;104599;1316;37334;-71
2022/11/29 04:30:12;;;;;;;24.40;16.00;;;;;;;0.96;82.36;101353.34;104683;1318;37443;-69
2022/11/29 04:33:46;;;;;;;26.50;17.60;;;;;;;0.95;82.16;101354.19;104703;1319;36027;-67
2022/11/29 04:36:45;;;;;;;28.20;16.60;;;;;;;0.92;82.29;101350.16;104366;1316;37734;-69
2022/11/29 04:40:02;;;;;;;27.70;15.80;;;;;;;0.91;82.42;101349.64;104374;1323;36604;-69
2022/11/29 04:42:55;;;;;;;28.40;16.20;;;;;;;0.90;82.27;101353.41;104697;1313;37667;-70
2022/11/29 04:45:55;;;;;;;29.30;15.60;;;;;;;0.95;82.37;101353.83;104692;1313;36882;-71
2022/11/29 04:48:47;;;;;;;28.80;14.50;;;;;;;0.99;82.56;101355.95;104682;1319;37246;-70
2022/11/29 04:51:33;;;;;;;24.70;14.30;;;;;;;1.01;82.34;101360.63;104626;1313;37020;-70
2022/11/29 04:54:19;;;;;;;30.70;17.00;;;;;;;0.98;82.00;101358.17;104682;1313;37318;-67
2022/11/29 04:56:57;;;;;;;25.70;15.10;;;;;;;0.92;82.13;101357.55;104654;1313;35935;-70
2022/11/29 04:59:35;;;;;;;32.50;17.30;;;;;;;0.87;82.09;101361.59;104033;1313;915611;-71
2022/11/29 05:02:30;;;;;;;23.70;15.20;;;;;;;0.86;82.27;101364.33;104688;1313;37019;-70
2022/11/29 05:05:12;;;;;;;26.00;17.50;;;;;;;0.87;82.40;101372.23;104672;1313;37125;-69
2022/11/29 05:07:53;;;;;;;28.90;17.60;;;;;;;0.85;82.23;101371.36;104613;1313;37283;-70
2022/11/29 05:10:38;;;;;;;28.10;17.00;;;;;;;0.85;82.36;101371.86;104699;1314;36674;-69
2022/11/29 05:13:19;;;;;;;28.30;16.80;;;;;;;0.83;82.59;101373.72;104702;1319;37015;-69
2022/11/29 05:16:43;;;;;;;28.60;16.20;;;;;;;0.82;82.60;101376.80;104731;1319;37594;-69
2022/11/29 05:19:46;;;;;;;27.10;16.00;;;;;;;0.81;82.51;101379.52;104522;1319;174723;-69
2022/11/29 05:22:33;;;;;;;27.50;15.30;;;;;;;0.82;82.67;101384.17;104689;1319;36128;-67
2022/11/29 05:25:24;;;;;;;30.00;16.50;;;;;;;0.87;82.60;101384.95;104554;1319;174699;-67
2022/11/29 05:28:05;;;;;;;23.90;15.50;;;;;;;0.90;82.74;101385.88;104666;1314;37323;-70
2022/11/29 05:31:08;;;;;;;27.90;16.20;;;;;;;0.90;82.63;101387.41;104691;1313;37092;-68
2022/11/29 05:33:57;;;;;;;28.00;18.10;;;;;;;0.89;82.57;101390.33;104633;1317;38459;-67
2022/11/29 05:36:39;;;;;;;35.90;19.00;;;;;;;0.88;82.60;101399.07;104688;1319;37301;-70
2022/11/29 05:39:37;;;;;;;37.40;21.50;;;;;;;0.84;82.70;101398.98;104685;1314;37341;-69
2022/11/29 05:42:42;;;;;;;43.50;20.50;;;;;;;0.83;82.58;101402.21;104679;1316;37533;-69
2022/11/29 05:45:23;;;;;;;31.90;17.20;;;;;;;0.84;82.57;101403.82;104674;1319;37091;-69
2022/11/29 05:47:59;;;;;;;35.20;18.10;;;;;;;0.88;82.69;101404.71;104730;1319;37092;-69
2022/11/29 05:50:38;;;;;;;33.90;18.50;;;;;;;0.88;82.73;101404.73;104711;1319;37185;-69
2022/11/29 05:53:22;;;;;;;36.20;20.20;;;;;;;0.88;82.70;101408.32;104782;1299;36129;-70
2022/11/29 05:56:05;;;;;;;34.30;21.10;;;;;;;0.87;82.64;101410.03;104792;1311;38237;-69
2022/11/29 05:58:46;;;;;;;34.80;19.70;;;;;;;0.84;82.70;101412.73;104768;1317;38456;-68
2022/11/29 06:01:24;;;;;;;33.30;18.20;;;;;;;0.85;82.77;101415.34;104726;1313;37026;-69
2022/11/29 06:04:04;;;;;;;33.40;19.80;;;;;;;0.91;82.93;101419.55;104996;1307;37018;-70
2022/11/29 06:06:43;;;;;;;31.20;17.80;;;;;;;0.93;82.80;101423.20;104941;1307;37622;-68
2022/11/29 06:09:21;;;;;;;31.50;19.70;;;;;;;0.95;82.84;101425.66;104982;1316;37060;-69
2022/11/29 06:12:01;;;;;;;33.90;19.00;;;;;;;0.99;83.03;101425.71;104998;1307;38462;-70
2022/11/29 06:14:51;;;;;;;;;;;;;;;1.00;82.80;101428.84;104993;1314;38568;-69
2022/11/29 06:17:59;;;;;;;34.70;19.80;;;;;;;0.94;82.68;101428.54;104947;1309;38209;-70
2022/11/29 06:21:10;;;;;;;36.00;18.60;;;;;;;0.93;82.86;101434.20;104917;1314;36269;-67
2022/11/29 06:24:09;;;;;;;32.40;17.60;;;;;;;0.96;82.87;101433.90;104968;1307;36215;-67
2022/11/29 06:27:10;;;;;;;35.40;19.40;;;;;;;0.99;82.92;101435.00;104936;1313;38334;-68
2022/11/29 06:29:52;;;;;;;33.20;18.70;;;;;;;0.98;82.69;101440.83;104964;1313;37199;-68
2022/11/29 06:32:35;;;;;;;35.90;18.80;;;;;;;0.96;82.69;101437.00;104968;1307;37190;-68
2022/11/29 06:35:16;;;;;;;37.90;20.70;;;;;;;0.92;82.52;101440.35;104946;1314;37088;-68
2022/11/29 06:37:50;;;;;;;;;;;;;;;0.91;82.81;101442.40;104890;1306;174736;-67
2022/11/29 06:40:26;;;;;;;38.80;21.20;;;;;;;0.93;82.97;101444.00;104945;1306;37098;-68
2022/11/29 06:43:08;;;;;;;35.30;20.10;;;;;;;0.97;83.05;101442.16;104992;1314;37069;-69
2022/11/29 06:45:48;;;;;;;32.70;20.40;;;;;;;0.97;82.78;101442.52;104936;1313;37005;-67
2022/11/29 06:48:25;;;;;;;36.10;19.60;;;;;;;0.98;82.99;101446.67;104960;1313;37582;-67
2022/11/29 06:51:06;;;;;;;41.00;23.20;;;;;;;0.98;82.99;101443.58;104967;1306;37291;-68
2022/11/29 06:53:48;;;;;;;42.20;22.70;;;;;;;0.99;83.02;101444.97;104983;1312;37323;-67
2022/11/29 06:56:26;;;;;;;33.50;20.20;;;;;;;0.95;82.88;101446.44;104979;1311;37047;-69
2022/11/29 06:59:07;;;;;;;38.30;21.70;;;;;;;0.97;82.92;101451.27;104966;1306;37555;-68
2022/11/29 07:01:44;;;;;;;35.60;19.60;;;;;;;1.00;83.07;101453.92;104954;1307;37325;-69
2022/11/29 07:04:46;;;;;;;33.70;19.20;;;;;;;1.02;82.93;101453.77;105003;1312;37198;-70
2022/11/29 07:07:24;;;;;;;34.80;19.30;;;;;;;1.03;82.80;101454.64;104938;1312;37122;-67
2022/11/29 07:10:02;;;;;;;32.90;19.40;;;;;;;1.01;82.91;101459.77;104975;1312;37004;-68
2022/11/29 07:12:39;;;;;;;39.10;19.50;;;;;;;0.98;82.78;101464.35;105011;1307;37105;-70
2022/11/29 07:15:21;;;;;;;33.90;19.60;;;;;;;0.96;82.78;101465.01;104969;1306;37500;-68
2022/11/29 07:18:07;;;;;;;36.40;19.20;;;;;;;0.95;82.85;101461.38;104999;1306;36492;-69
2022/11/29 07:20:45;;;;;;;39.30;22.40;;;;;;;0.94;82.85;101462.75;104948;1312;38709;-69
2022/11/29 07:23:25;;;;;;;33.00;18.60;;;;;;;0.94;82.93;101464.47;105003;1306;37086;-70
2022/11/29 07:26:09;;;;;;;32.70;19.90;;;;;;;0.93;82.89;101468.02;105002;1306;37606;-69
2022/11/29 07:28:54;;;;;;;38.40;19.90;;;;;;;0.88;82.82;101465.87;104969;1312;36079;-68
2022/11/29 07:31:38;;;;;;;35.90;19.10;;;;;;;0.87;82.91;101466.72;104989;1312;37659;-70
2022/11/29 07:34:19;;;;;;;33.40;20.30;;;;;;;0.90;83.01;101465.07;104966;1312;37259;-71
2022/11/29 07:36:59;;;;;;;32.50;20.00;;;;;;;0.92;83.12;101469.39;104739;1316;172530;-69
2022/11/29 07:39:44;;;;;;;33.40;18.80;;;;;;;0.90;83.23;101476.07;104826;1316;37098;-69
2022/11/29 07:42:22;;;;;;;35.40;19.80;;;;;;;0.90;83.16;101476.58;104859;1316;36574;-71
2022/11/29 07:45:02;;;;;;;32.00;17.30;;;;;;;0.90;82.98;101482.06;104843;1316;37089;-69
2022/11/29 07:47:34;;;;;;;;;;;;;;;0.87;83.07;101477.02;104443;1310;516829;-69
2022/11/29 07:50:10;;;;;;;31.50;16.90;;;;;;;0.88;83.15;101480.82;104819;1310;37077;-71
2022/11/29 07:52:43;;;;;;;37.90;18.80;;;;;;;0.93;83.10;101480.75;104850;1316;37047;-71
2022/11/29 07:55:20;;;;;;;32.40;18.30;;;;;;;0.97;83.19;101479.96;104838;1316;37215;-70
2022/11/29 07:57:54;;;;;;;33.70;19.00;;;;;;;0.99;83.03;101480.88;104845;1316;37099;-69
2022/11/29 08:00:28;;;;;;;35.80;19.70;;;;;;;1.00;83.12;101485.19;104848;1316;37081;-69
2022/11/29 08:03:06;;;;;;;42.20;20.80;;;;;;;1.02;83.16;101484.35;104842;1310;38220;-70
2022/11/29 08:05:40;;;;;;;36.50;18.80;;;;;;;1.00;82.77;101482.27;104827;1310;37065;-70
2022/11/29 08:08:15;;;;;;;40.80;20.70;;;;;;;1.01;82.92;101485.20;104874;1314;36040;-69
2022/11/29 08:10:51;;;;;;;32.30;19.00;;;;;;;1.05;82.77;101480.30;104846;1316;36127;-71
2022/11/29 08:13:27;;;;;;;35.10;19.20;;;;;;;1.09;82.69;101480.02;104872;1313;37452;-71
2022/11/29 08:16:04;;;;;;;32.10;19.00;;;;;;;1.12;82.76;101481.45;104863;1316;37072;-70
2022/11/29 08:18:39;;;;;;;35.90;19.70;;;;;;;1.15;82.70;101481.17;104855;1309;37245;-72
2022/11/29 08:21:17;;;;;;;32.90;18.50;;;;;;;1.18;82.61;101482.92;104863;1316;38214;-72
2022/11/29 08:23:53;;;;;;;37.90;20.10;;;;;;;1.17;82.60;101482.57;104822;1316;37213;-70
2022/11/29 08:26:28;;;;;;;38.90;21.90;;;;;;;1.19;82.53;101482.61;104821;1310;38278;-70
2022/11/29 08:29:03;;;;;;;33.50;18.40;;;;;;;1.20;82.18;101484.35;104846;1316;37078;-69
2022/11/29 08:31:37;;;;;;;30.70;17.60;;;;;;;1.18;81.81;101484.14;104879;1316;38771;-68
2022/11/29 08:34:11;;;;;;;33.10;19.50;;;;;;;1.22;81.68;101484.54;104797;1315;37111;-69
2022/11/29 08:36:45;;;;;;;30.00;17.30;;;;;;;1.23;81.57;101483.02;104793;1315;37090;-68
2022/11/29 08:39:29;;;;;;;32.40;17.70;;;;;;;1.25;81.76;101484.27;104776;1317;36089;-68
2022/11/29 08:42:07;;;;;;;33.90;18.80;;;;;;;1.27;81.70;101488.94;104805;1316;37138;-70
2022/11/29 08:44:44;;;;;;;33.90;19.50;;;;;;;1.25;81.50;101485.98;104777;1317;37070;-70
2022/11/29 08:47:37;;;;;;;33.60;19.30;;;;;;;1.25;81.74;101487.88;104834;1316;37568;-71
2022/11/29 08:50:17;;;;;;;29.90;18.70;;;;;;;1.27;81.56;101493.58;104785;1315;37284;-71
2022/11/29 08:55:45;;;;;;;32.10;18.90;;;;;;;1.32;81.27;101491.94;104786;1316;38359;-70
2022/11/29 08:58:23;;;;;;;30.90;17.90;;;;;;;1.32;81.19;101492.11;104799;1315;37074;-71
2022/11/29 09:00:57;;;;;;;28.30;17.20;;;;;;;1.31;81.02;101491.59;104802;1316;37129;-70
2022/11/29 09:06:32;;;;;;;43.90;22.50;;;;;;;1.31;81.20;101481.95;104792;1315;37168;-71
2022/11/29 09:09:08;;;;;;;34.80;20.90;;;;;;;1.36;81.51;101481.70;104792;1315;38325;-70
2022/11/29 09:11:42;;;;;;;30.90;18.80;;;;;;;1.42;81.38;101481.99;104810;1315;37165;-70
2022/11/29 09:14:21;;;;;;;31.50;19.60;;;;;;;1.47;80.88;101480.02;104808;1317;37593;-69
2022/11/29 09:16:55;;;;;;;34.50;19.40;;;;;;;1.53;81.18;101482.00;104813;1316;36976;-70
2022/11/29 09:19:30;;;;;;;32.50;20.10;;;;;;;1.57;80.67;101483.77;104799;1309;37078;-71
2022/11/29 09:22:10;;;;;;;33.60;19.70;;;;;;;1.55;80.44;101484.09;104816;1315;37087;-70
2022/11/29 09:24:45;;;;;;;33.90;19.60;;;;;;;1.54;80.47;101485.11;104808;1316;37100;-71
2022/11/29 09:27:19;;;;;;;32.60;18.80;;;;;;;1.53;80.39;101486.32;104833;1315;37146;-70
2022/11/29 09:29:54;;;;;;;27.80;17.50;;;;;;;1.50;79.96;101486.24;104791;1315;37664;-68
2022/11/29 09:32:30;;;;;;;27.50;17.10;;;;;;;1.47;80.07;101480.69;104723;1318;37244;-68
2022/11/29 09:35:10;;;;;;;33.30;18.60;;;;;;;1.49;80.01;101481.77;104808;1315;36742;-69
2022/11/29 09:37:47;;;;;;;32.60;19.00;;;;;;;1.53;80.33;101478.55;104800;1315;37086;-71
2022/11/29 09:40:25;;;;;;;30.00;18.50;;;;;;;1.55;80.10;101479.80;104802;1315;36452;-71
2022/11/29 09:43:09;;;;;;;28.60;17.40;;;;;;;1.57;80.16;101477.77;104792;1316;37284;-71
2022/11/29 09:45:45;;;;;;;28.80;17.30;;;;;;;1.59;80.07;101475.22;104794;1315;37127;-72
2022/11/29 09:48:57;;;;;;;32.80;20.60;;;;;;;1.58;79.91;101479.00;104824;1316;37181;-68
2022/11/29 09:51:39;;;;;;;38.10;19.10;;;;;;;1.59;79.93;101481.93;104790;1315;36172;-71
2022/11/29 09:54:28;;;;;;;27.80;16.70;;;;;;;1.64;80.21;101480.45;104794;1309;37108;-70
2022/11/29 09:57:02;;;;;;;36.50;21.40;;;;;;;1.71;79.98;101476.44;104806;1315;37033;-68
2022/11/29 09:59:43;;;;;;;25.70;16.00;;;;;;;1.77;79.87;101474.64;104676;1315;174659;-69
2022/11/29 10:02:25;;;;;;;33.30;19.40;;;;;;;1.79;79.35;101475.89;104826;1316;37090;-70
2022/11/29 10:05:06;;;;;;;31.40;17.90;;;;;;;1.79;78.85;101474.69;104805;1315;36241;-70
2022/11/29 10:07:43;;;;;;;33.90;20.90;;;;;;;1.77;78.73;101473.97;104787;1315;37298;-70
2022/11/29 10:10:23;;;;;;;29.40;17.40;;;;;;;1.77;78.71;101470.69;104776;1309;37335;-70
2022/11/29 10:13:01;;;;;;;32.80;19.50;;;;;;;1.76;78.58;101468.27;104815;1315;36369;-72
2022/11/29 10:15:41;;;;;;;29.50;17.40;;;;;;;1.77;78.20;101464.66;104804;1315;37019;-70
2022/11/29 10:18:26;;;;;;;26.20;17.40;;;;;;;1.78;77.96;101466.59;104833;1315;37728;-68
2022/11/29 10:21:06;;;;;;;32.90;18.30;;;;;;;1.78;78.02;101458.16;104781;1315;37430;-71
2022/11/29 10:23:43;;;;;;;27.20;16.70;;;;;;;1.82;78.39;101456.84;104799;1315;37153;-70
2022/11/29 10:26:23;;;;;;;29.00;18.00;;;;;;;1.87;78.40;101455.19;104834;1317;38469;-71
2022/11/29 10:28:57;;;;;;;28.10;17.60;;;;;;;1.92;78.34;101458.88;104688;1315;172172;-69
2022/11/29 10:31:38;;;;;;;31.30;18.20;;;;;;;1.93;78.02;101460.09;104887;1316;37842;-68
2022/11/29 10:34:17;;;;;;;32.10;18.70;;;;;;;1.90;77.93;101460.23;104678;1309;174682;-68
2022/11/29 10:36:53;;;;;;;25.00;15.70;;;;;;;1.93;78.11;101463.20;104818;1309;37947;-68
2022/11/29 10:39:32;;;;;;;27.80;16.10;;;;;;;1.98;78.17;101459.66;104785;1317;37132;-68
2022/11/29 10:42:47;;;;;;;30.30;17.50;;;;;;;2.00;77.65;101461.58;104794;1315;37377;-70
2022/11/29 10:45:04;;;;;;;28.50;18.00;;;;;;;2.02;77.63;101465.20;104799;1315;37035;-70
2022/11/29 10:47:42;;;;;;;29.70;19.80;;;;;;;2.02;77.74;101461.09;104802;1315;37095;-72
2022/11/29 10:50:24;;;;;;;33.90;19.20;;;;;;;2.00;77.38;101467.42;104801;1316;37071;-72
2022/11/29 10:53:03;;;;;;;29.90;18.20;;;;;;;1.98;77.68;101467.75;104699;1316;174645;-69
2022/11/29 10:55:44;;;;;;;27.80;17.30;;;;;;;2.00;77.91;101470.35;104776;1315;37294;-69
2022/11/29 10:58:26;;;;;;;27.20;17.00;;;;;;;2.03;77.39;101471.77;104825;1313;37071;-71
2022/11/29 11:01:06;;;;;;;28.10;17.50;;;;;;;2.02;77.29;101472.63;104822;1309;37274;-72
2022/11/29 11:03:51;;;;;;;27.40;18.20;;;;;;;2.08;77.89;101467.70;104689;1315;187296;-71
2022/11/29 11:06:41;;;;;;;25.10;16.00;;;;;;;2.11;77.51;101462.58;104893;1309;37638;-71
2022/11/29 11:09:30;;;;;;;25.50;16.90;;;;;;;2.10;77.15;101464.29;104651;1309;172527;-68
2022/11/29 11:12:07;;;;;;;24.90;16.50;;;;;;;2.05;76.83;101467.66;104815;1309;37117;-70
2022/11/29 11:14:43;;;;;;;39.50;21.80;;;;;;;1.99;76.58;101472.92;104770;1309;37384;-70
2022/11/29 11:17:31;;;;;;;29.60;16.70;;;;;;;1.98;76.95;101468.61;104835;1315;38187;-70
2022/11/29 11:20:19;;;;;;;29.80;17.00;;;;;;;2.02;77.01;101473.64;104788;1315;37084;-71
2022/11/29 11:23:01;;;;;;;26.00;16.80;;;;;;;2.03;77.16;101474.54;104685;1316;174661;-72
2022/11/29 11:25:39;;;;;;;28.70;19.00;;;;;;;2.05;76.62;101473.52;104773;1316;36359;-72
2022/11/29 11:28:19;;;;;;;30.30;17.50;;;;;;;2.05;76.73;101470.95;104789;1316;37524;-71
2022/11/29 11:31:02;;;;;;;29.70;17.10;;;;;;;2.05;77.02;101469.05;104812;1317;36286;-71
2022/11/29 11:33:44;;;;;;;29.50;19.30;;;;;;;2.07;76.97;101464.43;104798;1315;36030;-72
2022/11/29 11:36:26;;;;;;;27.10;17.30;;;;;;;2.09;77.01;101465.31;104822;1316;37250;-72
2022/11/29 11:39:10;;;;;;;29.60;17.90;;;;;;;2.05;76.65;101468.70;104749;1308;37350;-72
2022/11/29 11:44:48;;;;;;;27.90;18.40;;;;;;;2.07;76.85;101473.38;104788;1309;37058;-69
2022/11/29 11:47:25;;;;;;;35.80;19.90;;;;;;;2.12;77.16;101475.34;104795;1309;38197;-72
2022/11/29 11:50:10;;;;;;;25.90;17.30;;;;;;;2.21;77.45;101476.16;104802;1316;37028;-69
2022/11/29 11:52:52;;;;;;;26.00;15.50;;;;;;;2.25;76.59;101472.26;104735;1315;37057;-71
2022/11/29 11:55:41;;;;;;;23.30;16.40;;;;;;;2.25;76.88;101473.62;104777;1309;38256;-71
2022/11/29 11:58:29;;;;;;;26.70;17.30;;;;;;;2.25;76.67;101477.24;104783;1309;37769;-72
2022/11/29 12:01:16;;;;;;;24.40;16.20;;;;;;;2.24;76.44;101477.57;104794;1317;37024;-70
2022/11/29 12:03:54;;;;;;;19.80;14.60;;;;;;;2.21;76.45;101483.91;104810;1309;37179;-70
2022/11/29 12:06:51;;;;;;;24.40;14.70;;;;;;;2.20;76.42;101482.68;104797;1316;37062;-70
2022/11/29 12:09:34;;;;;;;21.20;14.60;;;;;;;2.17;75.68;101485.39;104798;1315;37011;-72
2022/11/29 12:12:15;;;;;;;20.70;13.70;;;;;;;2.15;75.53;101485.71;104816;1315;36142;-70
2022/11/29 12:14:58;;;;;;;20.80;14.30;;;;;;;2.14;75.94;101484.67;104800;1314;38757;-69
2022/11/29 12:17:36;;;;;;;22.30;15.80;;;;;;;2.16;75.98;101487.09;104827;1317;37272;-71
2022/11/29 12:20:24;;;;;;;23.00;15.20;;;;;;;2.13;75.70;101489.83;104786;1309;36991;-70
2022/11/29 12:23:26;;;;;;;22.20;15.20;;;;;;;2.09;75.58;101488.38;104781;1309;37411;-68
2022/11/29 12:26:03;;;;;;;26.80;15.30;;;;;;;2.04;75.78;101494.52;104789;1315;37100;-71
2022/11/29 12:28:39;;;;;;;24.80;16.70;;;;;;;2.00;75.70;101492.04;104799;1315;37013;-71
2022/11/29 12:31:26;;;;;;;24.60;16.70;;;;;;;1.99;75.82;101493.73;104809;1309;37040;-69
2022/11/29 12:34:08;;;;;;;23.60;16.30;;;;;;;1.98;76.03;101495.98;104767;1316;36099;-70